sensor_id;sensor_type;location;lat;lon;timestamp;temperature;humidity
35541;DHT22;21650;48.840;9.162;2022-10-23T00:01:42;11.50;99.90
35541;DHT22;21650;48.840;9.162;2022-10-23T00:04:20;11.50;99.90
35541;DHT22;21650;48.840;9.162;2022-10-23T00:06:46;11.50;99.90
35541;DHT22;21650;48.840;9.162;2022-10-23T00:09:14;11.50;99.90
35541;DHT22;21650;48.840;9.162;2022-10-23T00:11:41;11.50;99.90
35541;DHT22;21650;48.840;9.162;2022-10-23T00:14:09;11.50;99.90
35541;DHT22;21650;48.840;9.162;2022-10-23T00:16:35;11.50;99.90
35541;DHT22;21650;48.840;9.162;2022-10-23T00:19:01;11.40;99.90
35541;DHT22;21650;48.840;9.162;2022-10-23T00:21:27;11.40;99.90
35541;DHT22;21650;48.840;9.162;2022-10-23T00:23:53;11.40;99.90
35541;DHT22;21650;48.840;9.162;2022-10-23T00:26:18;11.30;99.90
35541;DHT22;21650;48.840;9.162;2022-10-23T00:28:46;11.30;99.90
35541;DHT22;21650;48.840;9.162;2022-10-23T00:31:12;11.30;99.90
35541;DHT22;21650;48.840;9.162;2022-10-23T00:33:38;11.20;99.90
35541;DHT22;21650;48.840;9.162;2022-10-23T00:36:09;11.20;99.90
35541;DHT22;21650;48.840;9.162;2022-10-23T00:38:35;11.30;99.90
35541;DHT22;21650;48.840;9.162;2022-10-23T00:41:01;11.30;99.90
35541;DHT22;21650;48.840;9.162;2022-10-23T00:43:29;11.30;99.90
35541;DHT22;21650;48.840;9.162;2022-10-23T00:45:55;11.30;99.90
35541;DHT22;21650;48.840;9.162;2022-10-23T00:48:21;11.20;99.90
35541;DHT22;21650;48.840;9.162;2022-10-23T00:50:47;11.20;99.90
35541;DHT22;21650;48.840;9.162;2022-10-23T00:53:14;11.20;99.90
35541;DHT22;21650;48.840;9.162;2022-10-23T00:55:42;11.20;99.90
35541;DHT22;21650;48.840;9.162;2022-10-23T00:58:12;11.10;99.90
35541;DHT22;21650;48.840;9.162;2022-10-23T01:00:50;11.10;99.90
35541;DHT22;21650;48.840;9.162;2022-10-23T01:03:18;11.20;99.90
35541;DHT22;21650;48.840;9.162;2022-10-23T01:05:49;11.10;99.90
35541;DHT22;21650;48.840;9.162;2022-10-23T01:08:45;11.10;99.90
35541;DHT22;21650;48.840;9.162;2022-10-23T01:11:26;11.00;99.90
35541;DHT22;21650;48.840;9.162;2022-10-23T01:16:28;11.10;99.90
35541;DHT22;21650;48.840;9.162;2022-10-23T01:21:34;11.10;99.90
35541;DHT22;21650;48.840;9.162;2022-10-23T01:24:16;11.00;99.90
35541;DHT22;21650;48.840;9.162;2022-10-23T01:26:58;11.00;99.90
35541;DHT22;21650;48.840;9.162;2022-10-23T01:29:37;11.00;99.90
35541;DHT22;21650;48.840;9.162;2022-10-23T01:32:08;11.00;99.90
35541;DHT22;21650;48.840;9.162;2022-10-23T01:34:45;11.00;99.90
35541;DHT22;21650;48.840;9.162;2022-10-23T01:37:16;10.90;99.90
35541;DHT22;21650;48.840;9.162;2022-10-23T01:39:47;11.00;99.90
35541;DHT22;21650;48.840;9.162;2022-10-23T01:42:37;10.90;99.90
35541;DHT22;21650;48.840;9.162;2022-10-23T01:45:12;10.90;99.90
35541;DHT22;21650;48.840;9.162;2022-10-23T01:47:40;10.90;99.90
35541;DHT22;21650;48.840;9.162;2022-10-23T01:50:07;10.80;99.90
35541;DHT22;21650;48.840;9.162;2022-10-23T01:52:36;10.90;99.90
35541;DHT22;21650;48.840;9.162;2022-10-23T01:55:01;10.90;99.90
35541;DHT22;21650;48.840;9.162;2022-10-23T01:57:30;10.80;99.90
35541;DHT22;21650;48.840;9.162;2022-10-23T02:00:05;10.80;99.90
35541;DHT22;21650;48.840;9.162;2022-10-23T02:02:32;10.80;99.90
35541;DHT22;21650;48.840;9.162;2022-10-23T02:05:05;10.80;99.90
35541;DHT22;21650;48.840;9.162;2022-10-23T02:07:31;10.80;99.90
35541;DHT22;21650;48.840;9.162;2022-10-23T02:09:57;10.80;99.90
35541;DHT22;21650;48.840;9.162;2022-10-23T02:12:36;10.80;99.90
35541;DHT22;21650;48.840;9.162;2022-10-23T02:15:12;10.80;99.90
35541;DHT22;21650;48.840;9.162;2022-10-23T02:20:22;10.80;99.90
35541;DHT22;21650;48.840;9.162;2022-10-23T02:22:59;10.80;99.90
35541;DHT22;21650;48.840;9.162;2022-10-23T02:25:35;10.80;99.90
35541;DHT22;21650;48.840;9.162;2022-10-23T02:28:05;10.80;99.90
35541;DHT22;21650;48.840;9.162;2022-10-23T02:30:33;10.70;99.90
35541;DHT22;21650;48.840;9.162;2022-10-23T02:33:01;10.70;99.90
35541;DHT22;21650;48.840;9.162;2022-10-23T02:35:27;10.80;99.90
35541;DHT22;21650;48.840;9.162;2022-10-23T02:37:57;10.80;99.90
35541;DHT22;21650;48.840;9.162;2022-10-23T02:40:34;10.80;99.90
35541;DHT22;21650;48.840;9.162;2022-10-23T02:43:15;10.80;99.90
35541;DHT22;21650;48.840;9.162;2022-10-23T02:46:00;10.80;99.90
35541;DHT22;21650;48.840;9.162;2022-10-23T02:48:35;10.80;99.90
35541;DHT22;21650;48.840;9.162;2022-10-23T02:51:05;10.90;99.90
35541;DHT22;21650;48.840;9.162;2022-10-23T02:53:59;10.90;99.90
35541;DHT22;21650;48.840;9.162;2022-10-23T02:59:13;10.90;99.90
35541;DHT22;21650;48.840;9.162;2022-10-23T03:02:08;10.90;99.90
35541;DHT22;21650;48.840;9.162;2022-10-23T03:04:39;10.90;99.90
35541;DHT22;21650;48.840;9.162;2022-10-23T03:07:10;10.90;99.90
35541;DHT22;21650;48.840;9.162;2022-10-23T03:09:36;10.90;99.90
35541;DHT22;21650;48.840;9.162;2022-10-23T03:12:01;10.90;99.90
35541;DHT22;21650;48.840;9.162;2022-10-23T03:14:27;10.90;99.90
35541;DHT22;21650;48.840;9.162;2022-10-23T03:16:52;11.00;99.90
35541;DHT22;21650;48.840;9.162;2022-10-23T03:19:18;10.90;99.90
35541;DHT22;21650;48.840;9.162;2022-10-23T03:21:43;10.90;99.90
35541;DHT22;21650;48.840;9.162;2022-10-23T03:24:09;10.90;99.90
35541;DHT22;21650;48.840;9.162;2022-10-23T03:26:34;10.80;99.90
35541;DHT22;21650;48.840;9.162;2022-10-23T03:29:00;10.80;99.90
35541;DHT22;21650;48.840;9.162;2022-10-23T03:31:25;10.80;99.90
35541;DHT22;21650;48.840;9.162;2022-10-23T03:33:51;10.80;99.90
35541;DHT22;21650;48.840;9.162;2022-10-23T03:36:16;10.80;99.90
35541;DHT22;21650;48.840;9.162;2022-10-23T03:38:42;10.80;99.90
35541;DHT22;21650;48.840;9.162;2022-10-23T03:41:07;10.80;99.90
35541;DHT22;21650;48.840;9.162;2022-10-23T03:43:33;10.80;99.90
35541;DHT22;21650;48.840;9.162;2022-10-23T03:45:58;10.80;99.90
35541;DHT22;21650;48.840;9.162;2022-10-23T03:48:25;10.80;99.90
35541;DHT22;21650;48.840;9.162;2022-10-23T03:50:51;10.70;99.90
35541;DHT22;21650;48.840;9.162;2022-10-23T03:53:16;10.70;99.90
35541;DHT22;21650;48.840;9.162;2022-10-23T03:55:43;10.70;99.90
35541;DHT22;21650;48.840;9.162;2022-10-23T03:58:08;10.70;99.90
35541;DHT22;21650;48.840;9.162;2022-10-23T04:00:34;10.70;99.90
35541;DHT22;21650;48.840;9.162;2022-10-23T04:02:59;10.70;99.90
35541;DHT22;21650;48.840;9.162;2022-10-23T04:05:25;10.80;99.90
35541;DHT22;21650;48.840;9.162;2022-10-23T04:07:50;10.70;99.90
35541;DHT22;21650;48.840;9.162;2022-10-23T04:10:16;10.70;99.90
35541;DHT22;21650;48.840;9.162;2022-10-23T04:12:42;10.80;99.90
35541;DHT22;21650;48.840;9.162;2022-10-23T04:15:08;10.80;99.90
35541;DHT22;21650;48.840;9.162;2022-10-23T04:17:33;10.80;99.90
35541;DHT22;21650;48.840;9.162;2022-10-23T04:19:59;10.80;99.90
35541;DHT22;21650;48.840;9.162;2022-10-23T04:22:24;10.80;99.90
35541;DHT22;21650;48.840;9.162;2022-10-23T04:24:50;10.90;99.90
35541;DHT22;21650;48.840;9.162;2022-10-23T04:27:15;10.90;99.90
35541;DHT22;21650;48.840;9.162;2022-10-23T04:29:41;10.80;99.90
35541;DHT22;21650;48.840;9.162;2022-10-23T04:32:06;10.80;99.90
35541;DHT22;21650;48.840;9.162;2022-10-23T04:34:32;10.80;99.90
35541;DHT22;21650;48.840;9.162;2022-10-23T04:36:58;10.70;99.90
35541;DHT22;21650;48.840;9.162;2022-10-23T04:39:23;10.70;99.90
35541;DHT22;21650;48.840;9.162;2022-10-23T04:41:49;10.70;99.90
35541;DHT22;21650;48.840;9.162;2022-10-23T04:44:14;10.70;99.90
35541;DHT22;21650;48.840;9.162;2022-10-23T04:46:40;10.70;99.90
35541;DHT22;21650;48.840;9.162;2022-10-23T04:49:05;10.80;99.90
35541;DHT22;21650;48.840;9.162;2022-10-23T04:51:31;10.80;99.90
35541;DHT22;21650;48.840;9.162;2022-10-23T04:53:56;10.80;99.90
35541;DHT22;21650;48.840;9.162;2022-10-23T04:56:22;10.80;99.90
35541;DHT22;21650;48.840;9.162;2022-10-23T04:58:47;10.80;99.90
35541;DHT22;21650;48.840;9.162;2022-10-23T05:01:13;10.80;99.90
35541;DHT22;21650;48.840;9.162;2022-10-23T05:03:39;10.80;99.90
35541;DHT22;21650;48.840;9.162;2022-10-23T05:06:04;10.90;99.90
35541;DHT22;21650;48.840;9.162;2022-10-23T05:08:30;10.90;99.90
35541;DHT22;21650;48.840;9.162;2022-10-23T05:10:56;10.90;99.90
35541;DHT22;21650;48.840;9.162;2022-10-23T05:13:21;10.90;99.90
35541;DHT22;21650;48.840;9.162;2022-10-23T05:15:49;10.90;99.90
35541;DHT22;21650;48.840;9.162;2022-10-23T05:18:31;11.00;99.90
35541;DHT22;21650;48.840;9.162;2022-10-23T05:21:03;10.90;99.90
35541;DHT22;21650;48.840;9.162;2022-10-23T05:23:32;11.00;99.90
35541;DHT22;21650;48.840;9.162;2022-10-23T05:25:59;11.00;99.90
35541;DHT22;21650;48.840;9.162;2022-10-23T05:28:25;11.00;99.90
35541;DHT22;21650;48.840;9.162;2022-10-23T05:30:50;11.00;99.90
35541;DHT22;21650;48.840;9.162;2022-10-23T05:33:16;11.00;99.90
35541;DHT22;21650;48.840;9.162;2022-10-23T05:35:43;11.00;99.90
35541;DHT22;21650;48.840;9.162;2022-10-23T05:38:09;11.00;99.90
35541;DHT22;21650;48.840;9.162;2022-10-23T05:40:35;10.90;99.90
35541;DHT22;21650;48.840;9.162;2022-10-23T05:43:01;11.00;99.90
35541;DHT22;21650;48.840;9.162;2022-10-23T05:45:26;11.00;99.90
35541;DHT22;21650;48.840;9.162;2022-10-23T05:47:52;11.00;99.90
35541;DHT22;21650;48.840;9.162;2022-10-23T05:50:18;11.00;99.90
35541;DHT22;21650;48.840;9.162;2022-10-23T05:52:47;11.00;99.90
35541;DHT22;21650;48.840;9.162;2022-10-23T05:55:13;11.00;99.90
35541;DHT22;21650;48.840;9.162;2022-10-23T05:57:39;10.90;99.90
35541;DHT22;21650;48.840;9.162;2022-10-23T06:00:05;10.80;99.90
35541;DHT22;21650;48.840;9.162;2022-10-23T06:02:32;10.80;99.90
35541;DHT22;21650;48.840;9.162;2022-10-23T06:04:58;10.90;99.90
35541;DHT22;21650;48.840;9.162;2022-10-23T06:07:25;10.90;99.90
35541;DHT22;21650;48.840;9.162;2022-10-23T06:09:51;10.90;99.90
35541;DHT22;21650;48.840;9.162;2022-10-23T06:12:18;10.90;99.90
35541;DHT22;21650;48.840;9.162;2022-10-23T06:14:43;11.00;99.90
35541;DHT22;21650;48.840;9.162;2022-10-23T06:17:09;11.00;99.90
35541;DHT22;21650;48.840;9.162;2022-10-23T06:19:34;11.10;99.90
35541;DHT22;21650;48.840;9.162;2022-10-23T06:22:00;11.10;99.90
35541;DHT22;21650;48.840;9.162;2022-10-23T06:24:25;11.20;99.90
35541;DHT22;21650;48.840;9.162;2022-10-23T06:26:51;11.20;99.90
35541;DHT22;21650;48.840;9.162;2022-10-23T06:29:17;11.20;99.90
35541;DHT22;21650;48.840;9.162;2022-10-23T06:31:42;11.20;99.90
35541;DHT22;21650;48.840;9.162;2022-10-23T06:34:10;11.20;99.90
35541;DHT22;21650;48.840;9.162;2022-10-23T06:36:36;11.30;99.90
35541;DHT22;21650;48.840;9.162;2022-10-23T06:39:03;11.30;99.90
35541;DHT22;21650;48.840;9.162;2022-10-23T06:41:28;11.30;99.90
35541;DHT22;21650;48.840;9.162;2022-10-23T06:43:54;11.40;99.90
35541;DHT22;21650;48.840;9.162;2022-10-23T06:46:19;11.40;99.90
35541;DHT22;21650;48.840;9.162;2022-10-23T06:48:45;11.50;99.90
35541;DHT22;21650;48.840;9.162;2022-10-23T06:51:13;11.50;99.90
35541;DHT22;21650;48.840;9.162;2022-10-23T06:53:39;11.60;99.90
35541;DHT22;21650;48.840;9.162;2022-10-23T06:56:06;11.70;99.90
35541;DHT22;21650;48.840;9.162;2022-10-23T06:58:34;11.70;99.90
35541;DHT22;21650;48.840;9.162;2022-10-23T07:01:01;11.80;99.90
35541;DHT22;21650;48.840;9.162;2022-10-23T07:03:27;11.80;99.90
35541;DHT22;21650;48.840;9.162;2022-10-23T07:05:53;11.80;99.90
35541;DHT22;21650;48.840;9.162;2022-10-23T07:08:18;11.90;99.90
35541;DHT22;21650;48.840;9.162;2022-10-23T07:10:44;11.90;99.90
35541;DHT22;21650;48.840;9.162;2022-10-23T07:13:10;12.10;99.90
35541;DHT22;21650;48.840;9.162;2022-10-23T07:15:36;12.10;99.90
35541;DHT22;21650;48.840;9.162;2022-10-23T07:18:02;12.10;99.90
35541;DHT22;21650;48.840;9.162;2022-10-23T07:20:28;12.20;99.90
35541;DHT22;21650;48.840;9.162;2022-10-23T07:22:55;12.20;99.90
35541;DHT22;21650;48.840;9.162;2022-10-23T07:25:22;12.20;99.90
35541;DHT22;21650;48.840;9.162;2022-10-23T07:27:48;12.30;99.90
35541;DHT22;21650;48.840;9.162;2022-10-23T07:30:14;12.30;99.90
35541;DHT22;21650;48.840;9.162;2022-10-23T07:32:40;12.30;99.90
35541;DHT22;21650;48.840;9.162;2022-10-23T07:35:07;12.30;99.90
35541;DHT22;21650;48.840;9.162;2022-10-23T07:37:33;12.40;99.90
35541;DHT22;21650;48.840;9.162;2022-10-23T07:39:58;12.40;99.90
35541;DHT22;21650;48.840;9.162;2022-10-23T07:42:24;12.50;99.90
35541;DHT22;21650;48.840;9.162;2022-10-23T07:44:49;12.50;99.90
35541;DHT22;21650;48.840;9.162;2022-10-23T07:47:15;12.50;99.90
35541;DHT22;21650;48.840;9.162;2022-10-23T07:49:41;12.60;99.90
35541;DHT22;21650;48.840;9.162;2022-10-23T07:52:06;12.60;99.90
35541;DHT22;21650;48.840;9.162;2022-10-23T07:54:32;12.70;99.90
35541;DHT22;21650;48.840;9.162;2022-10-23T07:56:58;12.80;99.90
35541;DHT22;21650;48.840;9.162;2022-10-23T07:59:24;12.90;99.90
35541;DHT22;21650;48.840;9.162;2022-10-23T08:01:50;12.90;99.90
35541;DHT22;21650;48.840;9.162;2022-10-23T08:04:17;13.00;99.90
35541;DHT22;21650;48.840;9.162;2022-10-23T08:06:43;13.00;99.90
35541;DHT22;21650;48.840;9.162;2022-10-23T08:09:09;13.10;99.90
35541;DHT22;21650;48.840;9.162;2022-10-23T08:11:35;13.20;99.90
35541;DHT22;21650;48.840;9.162;2022-10-23T08:14:02;13.30;99.90
35541;DHT22;21650;48.840;9.162;2022-10-23T08:16:35;13.40;99.90
35541;DHT22;21650;48.840;9.162;2022-10-23T08:19:01;13.50;99.90
35541;DHT22;21650;48.840;9.162;2022-10-23T08:21:27;13.50;99.90
35541;DHT22;21650;48.840;9.162;2022-10-23T08:23:54;13.60;99.90
35541;DHT22;21650;48.840;9.162;2022-10-23T08:26:20;13.70;99.90
35541;DHT22;21650;48.840;9.162;2022-10-23T08:28:45;13.70;99.90
35541;DHT22;21650;48.840;9.162;2022-10-23T08:31:13;13.80;99.90
35541;DHT22;21650;48.840;9.162;2022-10-23T08:33:39;13.90;99.90
35541;DHT22;21650;48.840;9.162;2022-10-23T08:36:13;13.90;99.90
35541;DHT22;21650;48.840;9.162;2022-10-23T08:38:40;14.00;99.90
35541;DHT22;21650;48.840;9.162;2022-10-23T08:41:17;14.10;99.90
35541;DHT22;21650;48.840;9.162;2022-10-23T08:43:46;14.20;99.90
35541;DHT22;21650;48.840;9.162;2022-10-23T08:46:16;14.20;99.90
35541;DHT22;21650;48.840;9.162;2022-10-23T08:49:38;14.20;99.90
35541;DHT22;21650;48.840;9.162;2022-10-23T08:51:41;14.20;99.90
35541;DHT22;21650;48.840;9.162;2022-10-23T08:54:20;14.30;99.90
35541;DHT22;21650;48.840;9.162;2022-10-23T08:57:12;14.40;99.90
35541;DHT22;21650;48.840;9.162;2022-10-23T09:00:10;14.40;99.90
35541;DHT22;21650;48.840;9.162;2022-10-23T09:02:45;14.50;99.90
35541;DHT22;21650;48.840;9.162;2022-10-23T09:05:53;14.60;99.90
35541;DHT22;21650;48.840;9.162;2022-10-23T09:08:57;14.70;99.90
35541;DHT22;21650;48.840;9.162;2022-10-23T09:11:51;14.70;99.90
35541;DHT22;21650;48.840;9.162;2022-10-23T09:19:29;15.10;99.90
35541;DHT22;21650;48.840;9.162;2022-10-23T09:21:55;15.30;99.90
35541;DHT22;21650;48.840;9.162;2022-10-23T09:24:24;15.30;99.90
35541;DHT22;21650;48.840;9.162;2022-10-23T09:26:51;15.40;99.90
35541;DHT22;21650;48.840;9.162;2022-10-23T09:29:24;15.30;99.90
35541;DHT22;21650;48.840;9.162;2022-10-23T09:31:55;15.60;99.90
35541;DHT22;21650;48.840;9.162;2022-10-23T09:34:24;15.90;99.90
35541;DHT22;21650;48.840;9.162;2022-10-23T09:36:52;16.00;99.90
35541;DHT22;21650;48.840;9.162;2022-10-23T09:39:25;16.10;99.90
35541;DHT22;21650;48.840;9.162;2022-10-23T09:41:51;16.10;99.90
35541;DHT22;21650;48.840;9.162;2022-10-23T09:44:20;16.30;99.90
35541;DHT22;21650;48.840;9.162;2022-10-23T09:47:07;16.40;99.90
35541;DHT22;21650;48.840;9.162;2022-10-23T09:49:39;16.60;99.90
35541;DHT22;21650;48.840;9.162;2022-10-23T09:54:45;16.90;99.90
35541;DHT22;21650;48.840;9.162;2022-10-23T09:57:36;16.80;99.90
35541;DHT22;21650;48.840;9.162;2022-10-23T10:00:25;16.90;99.90
35541;DHT22;21650;48.840;9.162;2022-10-23T10:03:20;17.00;99.90
35541;DHT22;21650;48.840;9.162;2022-10-23T10:06:00;17.20;99.90
35541;DHT22;21650;48.840;9.162;2022-10-23T10:08:37;17.10;99.90
35541;DHT22;21650;48.840;9.162;2022-10-23T10:11:34;17.40;99.90
35541;DHT22;21650;48.840;9.162;2022-10-23T10:19:26;17.50;99.90
35541;DHT22;21650;48.840;9.162;2022-10-23T10:22:23;17.60;99.90
35541;DHT22;21650;48.840;9.162;2022-10-23T10:24:57;17.50;99.90
35541;DHT22;21650;48.840;9.162;2022-10-23T10:30:18;17.70;99.90
35541;DHT22;21650;48.840;9.162;2022-10-23T10:33:14;17.70;99.90
35541;DHT22;21650;48.840;9.162;2022-10-23T10:35:58;17.80;99.90
35541;DHT22;21650;48.840;9.162;2022-10-23T10:38:44;18.00;99.90
35541;DHT22;21650;48.840;9.162;2022-10-23T10:44:18;18.00;99.90
35541;DHT22;21650;48.840;9.162;2022-10-23T10:47:02;18.10;99.90
35541;DHT22;21650;48.840;9.162;2022-10-23T10:49:37;18.20;99.90
35541;DHT22;21650;48.840;9.162;2022-10-23T10:52:22;18.50;99.90
35541;DHT22;21650;48.840;9.162;2022-10-23T10:55:00;18.50;99.90
35541;DHT22;21650;48.840;9.162;2022-10-23T10:57:34;18.50;99.90
35541;DHT22;21650;48.840;9.162;2022-10-23T11:00:15;18.30;99.90
35541;DHT22;21650;48.840;9.162;2022-10-23T11:05:32;18.20;99.90
35541;DHT22;21650;48.840;9.162;2022-10-23T11:08:06;18.30;99.90
35541;DHT22;21650;48.840;9.162;2022-10-23T11:10:39;18.40;99.90
35541;DHT22;21650;48.840;9.162;2022-10-23T11:13:05;18.40;99.90
35541;DHT22;21650;48.840;9.162;2022-10-23T11:15:38;18.40;99.90
35541;DHT22;21650;48.840;9.162;2022-10-23T11:18:14;18.40;99.90
35541;DHT22;21650;48.840;9.162;2022-10-23T11:23:27;18.40;99.90
35541;DHT22;21650;48.840;9.162;2022-10-23T11:37:32;18.70;99.90
35541;DHT22;21650;48.840;9.162;2022-10-23T11:42:46;18.70;99.90
35541;DHT22;21650;48.840;9.162;2022-10-23T11:45:35;18.80;99.90
35541;DHT22;21650;48.840;9.162;2022-10-23T11:53:37;18.60;99.90
35541;DHT22;21650;48.840;9.162;2022-10-23T11:58:50;18.70;99.90
35541;DHT22;21650;48.840;9.162;2022-10-23T12:06:56;18.80;99.90
35541;DHT22;21650;48.840;9.162;2022-10-23T12:09:39;18.90;99.90
35541;DHT22;21650;48.840;9.162;2022-10-23T12:14:36;19.20;99.90
35541;DHT22;21650;48.840;9.162;2022-10-23T12:20:34;19.30;99.90
35541;DHT22;21650;48.840;9.162;2022-10-23T12:22:46;19.30;99.90
35541;DHT22;21650;48.840;9.162;2022-10-23T12:25:40;19.30;99.90
35541;DHT22;21650;48.840;9.162;2022-10-23T12:38:47;19.60;99.90
35541;DHT22;21650;48.840;9.162;2022-10-23T12:41:28;19.80;99.90
35541;DHT22;21650;48.840;9.162;2022-10-23T12:44:04;19.90;99.90
35541;DHT22;21650;48.840;9.162;2022-10-23T12:46:39;20.10;99.90
35541;DHT22;21650;48.840;9.162;2022-10-23T12:49:19;20.10;99.90
35541;DHT22;21650;48.840;9.162;2022-10-23T12:52:04;20.10;99.90
35541;DHT22;21650;48.840;9.162;2022-10-23T12:54:31;20.10;99.90
35541;DHT22;21650;48.840;9.162;2022-10-23T12:56:57;20.10;99.90
35541;DHT22;21650;48.840;9.162;2022-10-23T12:59:37;20.30;99.90
35541;DHT22;21650;48.840;9.162;2022-10-23T13:02:20;20.50;99.90
35541;DHT22;21650;48.840;9.162;2022-10-23T13:04:48;20.60;99.90
35541;DHT22;21650;48.840;9.162;2022-10-23T13:07:14;20.70;99.90
35541;DHT22;21650;48.840;9.162;2022-10-23T13:09:42;20.80;99.90
35541;DHT22;21650;48.840;9.162;2022-10-23T13:12:24;21.00;99.90
35541;DHT22;21650;48.840;9.162;2022-10-23T13:17:41;20.50;99.90
35541;DHT22;21650;48.840;9.162;2022-10-23T13:22:41;20.30;99.90
35541;DHT22;21650;48.840;9.162;2022-10-23T13:25:24;20.30;99.90
35541;DHT22;21650;48.840;9.162;2022-10-23T13:27:51;20.50;99.90
35541;DHT22;21650;48.840;9.162;2022-10-23T13:30:36;20.50;99.90
35541;DHT22;21650;48.840;9.162;2022-10-23T13:33:39;20.30;99.90
35541;DHT22;21650;48.840;9.162;2022-10-23T13:38:42;20.40;99.90
35541;DHT22;21650;48.840;9.162;2022-10-23T13:41:17;20.30;99.90
35541;DHT22;21650;48.840;9.162;2022-10-23T13:43:44;20.10;99.90
35541;DHT22;21650;48.840;9.162;2022-10-23T13:48:38;19.90;99.90
35541;DHT22;21650;48.840;9.162;2022-10-23T13:53:43;20.10;99.90
35541;DHT22;21650;48.840;9.162;2022-10-23T13:56:11;20.00;99.90
35541;DHT22;21650;48.840;9.162;2022-10-23T13:58:37;20.00;99.90
35541;DHT22;21650;48.840;9.162;2022-10-23T14:01:03;19.90;99.90
35541;DHT22;21650;48.840;9.162;2022-10-23T14:03:29;19.90;99.90
35541;DHT22;21650;48.840;9.162;2022-10-23T14:05:54;19.80;99.90
35541;DHT22;21650;48.840;9.162;2022-10-23T14:08:20;19.80;99.90
35541;DHT22;21650;48.840;9.162;2022-10-23T14:10:45;19.80;99.90
35541;DHT22;21650;48.840;9.162;2022-10-23T14:13:11;19.70;99.90
35541;DHT22;21650;48.840;9.162;2022-10-23T14:15:36;19.60;99.90
35541;DHT22;21650;48.840;9.162;2022-10-23T14:18:02;19.50;99.90
35541;DHT22;21650;48.840;9.162;2022-10-23T14:20:28;19.40;99.90
35541;DHT22;21650;48.840;9.162;2022-10-23T14:22:53;19.30;99.90
35541;DHT22;21650;48.840;9.162;2022-10-23T14:25:20;19.30;99.90
35541;DHT22;21650;48.840;9.162;2022-10-23T14:27:46;19.20;99.90
35541;DHT22;21650;48.840;9.162;2022-10-23T14:30:11;19.20;99.90
35541;DHT22;21650;48.840;9.162;2022-10-23T14:32:37;19.20;99.90
35541;DHT22;21650;48.840;9.162;2022-10-23T14:35:03;19.10;99.90
35541;DHT22;21650;48.840;9.162;2022-10-23T14:37:30;19.10;99.90
35541;DHT22;21650;48.840;9.162;2022-10-23T14:39:56;19.00;99.90
35541;DHT22;21650;48.840;9.162;2022-10-23T14:42:22;19.00;99.90
35541;DHT22;21650;48.840;9.162;2022-10-23T14:44:48;18.90;99.90
35541;DHT22;21650;48.840;9.162;2022-10-23T14:47:15;18.90;99.90
35541;DHT22;21650;48.840;9.162;2022-10-23T14:49:40;18.80;99.90
35541;DHT22;21650;48.840;9.162;2022-10-23T14:52:07;18.90;99.90
35541;DHT22;21650;48.840;9.162;2022-10-23T14:54:33;18.80;99.90
35541;DHT22;21650;48.840;9.162;2022-10-23T14:57:01;18.70;99.90
35541;DHT22;21650;48.840;9.162;2022-10-23T14:59:27;18.70;99.90
35541;DHT22;21650;48.840;9.162;2022-10-23T15:01:52;18.60;99.90
35541;DHT22;21650;48.840;9.162;2022-10-23T15:04:19;18.60;99.90
35541;DHT22;21650;48.840;9.162;2022-10-23T15:06:45;18.60;99.90
35541;DHT22;21650;48.840;9.162;2022-10-23T15:09:11;18.50;99.90
35541;DHT22;21650;48.840;9.162;2022-10-23T15:11:37;18.40;99.90
35541;DHT22;21650;48.840;9.162;2022-10-23T15:14:03;18.40;99.90
35541;DHT22;21650;48.840;9.162;2022-10-23T15:16:28;18.40;99.90
35541;DHT22;21650;48.840;9.162;2022-10-23T15:18:54;18.40;99.90
35541;DHT22;21650;48.840;9.162;2022-10-23T15:21:20;18.40;99.90
35541;DHT22;21650;48.840;9.162;2022-10-23T15:23:46;18.40;99.90
35541;DHT22;21650;48.840;9.162;2022-10-23T15:26:14;18.20;99.90
35541;DHT22;21650;48.840;9.162;2022-10-23T15:28:45;18.30;99.90
35541;DHT22;21650;48.840;9.162;2022-10-23T15:31:39;18.30;99.90
35541;DHT22;21650;48.840;9.162;2022-10-23T15:34:07;18.20;99.90
35541;DHT22;21650;48.840;9.162;2022-10-23T15:36:33;18.30;99.90
35541;DHT22;21650;48.840;9.162;2022-10-23T15:38:58;18.20;99.90
35541;DHT22;21650;48.840;9.162;2022-10-23T15:41:32;18.20;99.90
35541;DHT22;21650;48.840;9.162;2022-10-23T15:43:59;18.20;99.90
35541;DHT22;21650;48.840;9.162;2022-10-23T15:46:25;18.20;99.90
35541;DHT22;21650;48.840;9.162;2022-10-23T15:48:51;18.20;99.90
35541;DHT22;21650;48.840;9.162;2022-10-23T15:51:16;18.20;99.90
35541;DHT22;21650;48.840;9.162;2022-10-23T15:53:42;18.10;99.90
35541;DHT22;21650;48.840;9.162;2022-10-23T15:56:07;18.10;99.90
35541;DHT22;21650;48.840;9.162;2022-10-23T15:58:33;17.90;99.90
35541;DHT22;21650;48.840;9.162;2022-10-23T16:01:02;17.80;99.90
35541;DHT22;21650;48.840;9.162;2022-10-23T16:03:37;17.80;99.90
35541;DHT22;21650;48.840;9.162;2022-10-23T16:06:04;17.70;99.90
35541;DHT22;21650;48.840;9.162;2022-10-23T16:08:30;17.70;99.90
35541;DHT22;21650;48.840;9.162;2022-10-23T16:10:55;17.60;99.90
35541;DHT22;21650;48.840;9.162;2022-10-23T16:13:21;17.60;99.90
35541;DHT22;21650;48.840;9.162;2022-10-23T16:15:47;17.60;99.90
35541;DHT22;21650;48.840;9.162;2022-10-23T16:18:12;17.50;99.90
35541;DHT22;21650;48.840;9.162;2022-10-23T16:20:40;17.50;99.90
35541;DHT22;21650;48.840;9.162;2022-10-23T16:23:06;17.40;99.90
35541;DHT22;21650;48.840;9.162;2022-10-23T16:25:34;17.30;99.90
35541;DHT22;21650;48.840;9.162;2022-10-23T16:28:00;17.30;99.90
35541;DHT22;21650;48.840;9.162;2022-10-23T16:30:25;17.30;99.90
35541;DHT22;21650;48.840;9.162;2022-10-23T16:32:51;17.20;99.90
35541;DHT22;21650;48.840;9.162;2022-10-23T16:35:16;17.10;99.90
35541;DHT22;21650;48.840;9.162;2022-10-23T16:37:42;17.10;99.90
35541;DHT22;21650;48.840;9.162;2022-10-23T16:40:08;17.10;99.90
35541;DHT22;21650;48.840;9.162;2022-10-23T16:42:34;17.00;99.90
35541;DHT22;21650;48.840;9.162;2022-10-23T16:44:59;17.00;99.90
35541;DHT22;21650;48.840;9.162;2022-10-23T16:47:25;16.90;99.90
35541;DHT22;21650;48.840;9.162;2022-10-23T16:49:50;16.90;99.90
35541;DHT22;21650;48.840;9.162;2022-10-23T16:52:16;16.90;99.90
35541;DHT22;21650;48.840;9.162;2022-10-23T16:54:42;16.90;99.90
35541;DHT22;21650;48.840;9.162;2022-10-23T16:57:08;16.90;99.90
35541;DHT22;21650;48.840;9.162;2022-10-23T16:59:33;16.90;99.90
35541;DHT22;21650;48.840;9.162;2022-10-23T17:01:59;16.90;99.90
35541;DHT22;21650;48.840;9.162;2022-10-23T17:04:24;16.90;99.90
35541;DHT22;21650;48.840;9.162;2022-10-23T17:06:50;16.90;99.90
35541;DHT22;21650;48.840;9.162;2022-10-23T17:09:15;16.90;99.90
35541;DHT22;21650;48.840;9.162;2022-10-23T17:11:44;16.90;99.90
35541;DHT22;21650;48.840;9.162;2022-10-23T17:14:13;16.90;99.90
35541;DHT22;21650;48.840;9.162;2022-10-23T17:16:48;16.80;99.90
35541;DHT22;21650;48.840;9.162;2022-10-23T17:19:16;16.90;99.90